Time;durP1;ratioP1;P1;durP2;ratioP2;P2;SDS_P1;SDS_P2;PMS_P1;PMS_P2;Temp;Humidity;BMP_temperature;BMP_pressure;BME280_temperature;BME280_humidity;BME280_pressure;Samples;Min_cycle;Max_cycle;Signal;HPM_P1;HPM_P2
2023/05/12 00:00:55;;;;;;;9.90;7.20;;;14.40;93.70;;;;;;5049659;28;20033;-71
2023/05/12 00:03:22;;;;;;;15.15;8.30;;;14.50;94.10;;;;;;5052274;28;20111;-71
2023/05/12 00:05:48;;;;;;;14.85;7.30;;;14.50;94.00;;;;;;5052830;28;20017;-70
2023/05/12 00:08:14;;;;;;;12.75;7.63;;;14.50;93.70;;;;;;5053080;28;20040;-71
2023/05/12 00:10:40;;;;;;;10.07;7.00;;;14.50;93.30;;;;;;5053146;28;20100;-72
2023/05/12 00:13:07;;;;;;;12.75;7.30;;;14.40;92.20;;;;;;5053235;28;20355;-72
2023/05/12 00:15:32;;;;;;;11.43;6.97;;;14.50;91.50;;;;;;5052646;28;20025;-72
2023/05/12 00:17:58;;;;;;;7.95;6.32;;;14.40;91.50;;;;;;5053115;28;20043;-71
2023/05/12 00:20:23;;;;;;;15.00;6.95;;;14.50;91.10;;;;;;5053076;28;20052;-72
2023/05/12 00:22:49;;;;;;;12.60;7.10;;;14.50;91.30;;;;;;5052965;28;20056;-72
2023/05/12 00:25:14;;;;;;;12.82;7.55;;;14.50;91.10;;;;;;5053103;28;20025;-73
2023/05/12 00:27:40;;;;;;;12.80;7.20;;;14.50;90.40;;;;;;5053201;28;20047;-73
2023/05/12 00:30:06;;;;;;;12.63;6.90;;;14.50;90.00;;;;;;5053162;28;20492;-72
2023/05/12 00:32:32;;;;;;;10.73;6.53;;;14.50;86.70;;;;;;5052533;28;20111;-71
2023/05/12 00:34:57;;;;;;;10.07;5.93;;;14.50;84.90;;;;;;5052860;28;20124;-70
2023/05/12 00:37:23;;;;;;;9.10;6.15;;;14.50;85.40;;;;;;5053320;28;20028;-71
2023/05/12 00:39:49;;;;;;;18.10;6.45;;;14.50;83.60;;;;;;5052395;28;20382;-70
2023/05/12 00:42:14;;;;;;;12.63;6.13;;;14.50;81.60;;;;;;5053634;28;20032;-71
2023/05/12 00:44:40;;;;;;;12.20;5.78;;;14.50;79.20;;;;;;5053869;28;20555;-70
2023/05/12 00:47:06;;;;;;;8.65;5.70;;;14.50;77.00;;;;;;5054049;28;20116;-71
2023/05/12 00:49:32;;;;;;;13.20;5.90;;;14.60;72.30;;;;;;5053346;28;20024;-70
2023/05/12 00:51:58;;;;;;;8.68;5.65;;;14.60;65.90;;;;;;5052218;28;20317;-70
2023/05/12 00:54:27;;;;;;;8.93;5.60;;;14.70;60.10;;;;;;5052462;28;20029;-70
2023/05/12 00:56:53;;;;;;;8.85;5.38;;;14.70;58.20;;;;;;5052225;28;20032;-72
2023/05/12 00:59:19;;;;;;;9.20;5.50;;;14.70;56.00;;;;;;5052103;28;20025;-71
2023/05/12 01:01:46;;;;;;;8.55;5.65;;;14.70;53.30;;;;;;5051818;28;20031;-71
2023/05/12 01:04:12;;;;;;;9.85;5.75;;;14.70;52.70;;;;;;5052060;28;20477;-71
2023/05/12 01:06:43;;;;;;;6.90;5.55;;;;;;;;;;5051966;28;20036;-71
2023/05/12 01:09:09;;;;;;;11.05;5.70;;;;;;;;;;5051846;28;20043;-71
2023/05/12 01:11:35;;;;;;;8.75;5.45;;;;;;;;;;5051710;28;20086;-72
2023/05/12 01:14:02;;;;;;;11.18;5.70;;;;;;;;;;5051589;28;20045;-70
2023/05/12 01:16:31;;;;;;;10.25;5.50;;;;;;;;;;5051761;28;20490;-71
2023/05/12 01:18:57;;;;;;;12.18;5.65;;;;;;;;;;5051649;28;20034;-71
2023/05/12 01:21:23;;;;;;;10.55;5.40;;;;;;;;;;5055214;28;20051;-70
2023/05/12 01:23:54;;;;;;;9.13;5.75;;;;;;;;;;5053761;28;20013;-70
2023/05/12 01:26:21;;;;;;;11.35;6.30;;;;;;;;;;5055442;28;20013;-71
2023/05/12 01:28:47;;;;;;;11.57;6.03;;;;;;;;;;5055391;28;20108;-71
2023/05/12 01:31:14;;;;;;;8.32;5.50;;;;;;;;;;5051600;28;20371;-71
2023/05/12 01:33:42;;;;;;;8.60;6.00;;;;;;;;;;5051295;28;20121;-71
2023/05/12 01:36:08;;;;;;;8.10;5.57;;;;;;;;;;5052106;28;20375;-71
2023/05/12 01:38:34;;;;;;;9.55;5.90;;;;;;;;;;5051584;28;20494;-71
2023/05/12 01:41:01;;;;;;;8.38;5.95;;;;;;;;;;5051541;28;20487;-70
2023/05/12 01:43:26;;;;;;;9.25;6.07;;;;;;;;;;5051726;28;20037;-72
2023/05/12 01:45:52;;;;;;;9.02;5.72;;;;;;;;;;5051689;28;20032;-71
2023/05/12 01:48:18;;;;;;;11.30;5.68;;;;;;;;;;5051521;28;20052;-72
2023/05/12 01:50:44;;;;;;;9.10;5.53;;;;;;;;;;5051646;28;20028;-72
2023/05/12 01:53:11;;;;;;;12.75;6.45;;;;;;;;;;5051127;28;20021;-71
2023/05/12 01:55:37;;;;;;;11.80;6.13;;;;;;;;;;5050638;28;20063;-70
2023/05/12 01:58:03;;;;;;;11.60;5.95;;;;;;;;;;5050655;28;20017;-70
2023/05/12 02:00:29;;;;;;;8.30;6.05;;;;;;;;;;5050397;28;20024;-70
2023/05/12 02:02:55;;;;;;;11.35;6.10;;;;;;;;;;5050265;28;20033;-70
2023/05/12 02:05:21;;;;;;;9.52;5.97;;;;;;;;;;5050116;28;20467;-71
2023/05/12 02:07:47;;;;;;;9.43;5.70;;;;;;;;;;5050145;28;20056;-71
2023/05/12 02:10:13;;;;;;;10.30;5.70;;;;;;;;;;5048910;28;20075;-71
2023/05/12 02:12:39;;;;;;;10.57;6.15;;;;;;;;;;5049693;28;20029;-72
2023/05/12 02:15:05;;;;;;;11.20;6.65;;;;;;;;;;5050260;28;20033;-71
2023/05/12 02:17:31;;;;;;;10.27;7.20;;;;;;;;;;5050054;28;20029;-70
2023/05/12 02:19:57;;;;;;;11.93;6.25;;;;;;;;;;5050191;28;20021;-70
2023/05/12 02:22:23;;;;;;;6.97;5.38;;;;;;;;;;5050555;28;20028;-71
2023/05/12 02:24:49;;;;;;;10.43;5.78;;;;;;;;;;5050189;28;20117;-71
2023/05/12 02:27:15;;;;;;;11.93;6.13;;;;;;;;;;5049991;28;20025;-75
2023/05/12 02:29:41;;;;;;;10.43;7.05;;;;;;;;;;5049941;28;20145;-72
2023/05/12 02:32:07;;;;;;;13.13;6.43;;;;;;;;;;5049779;28;20392;-70
2023/05/12 02:34:33;;;;;;;8.52;5.90;;;;;;;;;;5050072;28;20024;-71
2023/05/12 02:36:59;;;;;;;10.95;6.55;;;;;;;;;;5050186;28;20021;-71
2023/05/12 02:39:25;;;;;;;11.77;6.68;;;;;;;;;;5053548;28;20063;-71
2023/05/12 02:41:51;;;;;;;9.00;5.85;;;;;;;;;;5053994;28;20036;-71
2023/05/12 02:44:19;;;;;;;13.15;6.57;;;;;;;;;;5054211;28;20024;-72
2023/05/12 02:46:45;;;;;;;9.60;5.32;;;;;;;;;;5054211;28;20021;-71
2023/05/12 02:49:11;;;;;;;11.75;6.13;;;;;;;;;;5054278;28;20058;-70
2023/05/12 02:51:37;;;;;;;9.77;6.07;;;;;;;;;;5054065;28;20033;-72
2023/05/12 02:54:03;;;;;;;8.00;5.55;;;;;;;;;;5053520;28;20028;-70
2023/05/12 02:56:29;;;;;;;9.70;6.38;;;;;;;;;;5053570;28;20113;-70
2023/05/12 02:58:55;;;;;;;11.73;5.85;;;;;;;;;;5053444;28;20104;-70
2023/05/12 03:01:21;;;;;;;10.15;5.70;;;;;;;;;;5053403;28;20111;-71
2023/05/12 03:03:47;;;;;;;7.82;6.13;;;;;;;;;;5053194;28;20021;-71
2023/05/12 03:06:13;;;;;;;8.88;5.55;;;;;;;;;;5053295;28;20104;-71
2023/05/12 03:08:39;;;;;;;16.25;5.70;;;;;;;;;;5053182;28;20029;-71
2023/05/12 03:11:05;;;;;;;12.20;5.47;;;;;;;;;;5053719;28;20017;-72
2023/05/12 03:13:32;;;;;;;12.18;5.90;;;;;;;;;;5052765;28;20044;-71
2023/05/12 03:16:00;;;;;;;11.30;5.45;;;;;;;;;;5051190;28;20171;-71
2023/05/12 03:18:27;;;;;;;11.35;6.70;;;;;;;;;;5052892;28;20557;-69
2023/05/12 03:20:53;;;;;;;9.07;5.55;;;;;;;;;;5057286;28;20031;-70
2023/05/12 03:23:19;;;;;;;9.52;6.40;;;;;;;;;;5072463;28;20036;-71
2023/05/12 03:25:45;;;;;;;8.32;6.10;;;;;;;;;;5072771;28;20087;-69
2023/05/12 03:28:11;;;;;;;8.77;6.10;;;;;;;;;;5072961;28;20351;-70
2023/05/12 03:30:37;;;;;;;10.70;6.70;;;;;;;;;;5072565;28;20035;-71
2023/05/12 03:33:03;;;;;;;13.07;6.22;;;;;;;;;;5072759;28;20025;-71
2023/05/12 03:35:29;;;;;;;8.80;5.90;;;;;;;;;;5072551;28;20180;-70
2023/05/12 03:37:55;;;;;;;10.75;6.35;;;;;;;;;;5073507;28;20024;-71
2023/05/12 03:40:21;;;;;;;10.77;6.40;;;;;;;;;;5073592;28;20063;-71
2023/05/12 03:42:47;;;;;;;9.70;5.65;;;;;;;;;;5073096;28;20522;-70
2023/05/12 03:45:13;;;;;;;9.38;5.72;;;;;;;;;;5073388;28;20029;-70
2023/05/12 03:47:39;;;;;;;10.60;5.90;;;;;;;;;;5073623;28;20025;-72
2023/05/12 03:50:06;;;;;;;12.05;6.30;;;;;;;;;;5072223;28;20027;-71
2023/05/12 03:52:32;;;;;;;7.35;5.72;;;;;;;;;;5072899;28;20031;-71
2023/05/12 03:54:58;;;;;;;14.57;5.93;;;;;;;;;;5073407;28;20390;-70
2023/05/12 03:57:24;;;;;;;10.35;6.07;;;;;;;;;;5072056;28;20031;-70
2023/05/12 03:59:50;;;;;;;7.53;5.50;;;;;;;;;;5072237;28;20308;-70
2023/05/12 04:02:16;;;;;;;10.07;6.55;;;;;;;;;;5071948;28;20024;-70
2023/05/12 04:04:42;;;;;;;12.07;6.30;;;;;;;;;;5072180;28;20107;-70
2023/05/12 04:07:08;;;;;;;11.13;6.95;;;;;;;;;;5071933;28;20076;-72
2023/05/12 04:09:34;;;;;;;15.20;6.75;;;;;;;;;;5071918;28;20040;-72
2023/05/12 04:12:00;;;;;;;10.52;6.18;;;;;;;;;;5072198;28;20064;-73
2023/05/12 04:14:26;;;;;;;11.50;6.07;;;;;;;;;;5072237;28;20077;-71
2023/05/12 04:16:52;;;;;;;8.05;6.03;;;;;;;;;;5072040;28;20025;-72
2023/05/12 04:19:18;;;;;;;11.38;6.10;;;;;;;;;;5072657;28;20048;-74
2023/05/12 04:21:44;;;;;;;9.75;5.63;;;;;;;;;;5072070;28;20404;-71
2023/05/12 04:24:10;;;;;;;15.25;5.93;;;;;;;;;;5073355;28;20024;-72
2023/05/12 04:26:36;;;;;;;12.50;5.68;;;;;;;;;;5072091;28;20032;-72
2023/05/12 04:29:02;;;;;;;9.60;6.28;;;;;;;;;;5070637;28;20032;-73
2023/05/12 04:31:28;;;;;;;9.90;6.32;;;;;;;;;;5072833;28;20031;-77
2023/05/12 04:33:54;;;;;;;13.35;6.32;;;;;;;;;;5072837;28;20040;-72
2023/05/12 04:36:20;;;;;;;7.57;5.43;;;;;;;;;;5073922;28;20049;-72
2023/05/12 04:38:46;;;;;;;12.20;5.97;;;;;;;;;;5072790;28;20028;-71
2023/05/12 04:41:13;;;;;;;9.68;5.50;;;;;;;;;;5071996;28;20017;-72
2023/05/12 04:43:39;;;;;;;9.40;6.32;;;;;;;;;;5070172;28;20059;-71
2023/05/12 04:46:05;;;;;;;9.82;5.65;;;;;;;;;;5071824;28;20066;-72
2023/05/12 04:48:31;;;;;;;9.07;6.00;;;;;;;;;;5071592;28;20394;-72
2023/05/12 04:51:00;;;;;;;10.23;5.45;;;;;;;;;;5071440;28;20039;-73
2023/05/12 04:53:26;;;;;;;9.07;5.97;;;;;;;;;;5071174;28;20025;-71
2023/05/12 04:55:52;;;;;;;12.23;6.18;;;;;;;;;;5072386;28;20024;-72
2023/05/12 04:58:18;;;;;;;9.07;5.68;;;;;;;;;;5073394;28;20025;-73
2023/05/12 05:00:44;;;;;;;12.98;6.00;;;;;;;;;;5072377;28;20035;-72
2023/05/12 05:03:10;;;;;;;8.60;6.07;;;;;;;;;;5072674;28;20508;-73
2023/05/12 05:05:36;;;;;;;10.15;6.35;;;;;;;;;;5072916;28;20337;-73
2023/05/12 05:08:02;;;;;;;11.60;6.05;;;;;;;;;;5073254;28;20043;-75
2023/05/12 05:10:28;;;;;;;13.00;6.28;;;;;;;;;;5071389;28;20035;-73
2023/05/12 05:12:55;;;;;;;10.27;5.72;;;;;;;;;;5074205;28;20075;-73
2023/05/12 05:15:21;;;;;;;8.05;5.10;;;;;;;;;;5073713;28;20560;-72
2023/05/12 05:17:48;;;;;;;11.85;5.35;;;;;;;;;;5074365;28;20078;-72
2023/05/12 05:20:14;;;;;;;9.40;5.72;;;;;;;;;;5072490;28;20440;-75
2023/05/12 05:22:40;;;;;;;10.77;5.57;;;;;;;;;;5071940;28;20031;-71
2023/05/12 05:25:07;;;;;;;7.57;5.50;;;;;;;;;;5071791;28;20103;-72
2023/05/12 05:27:33;;;;;;;12.95;5.82;;;;;;;;;;5072507;28;20030;-74
2023/05/12 05:29:59;;;;;;;8.80;5.20;;;;;;;;;;5071829;28;20059;-72
2023/05/12 05:32:25;;;;;;;9.18;5.53;;;;;;;;;;5071359;28;20056;-71
2023/05/12 05:34:51;;;;;;;9.82;5.38;;;;;;;;;;5071692;28;20020;-72
2023/05/12 05:37:18;;;;;;;12.30;6.05;;;;;;;;;;5071696;28;20086;-73
2023/05/12 05:39:44;;;;;;;12.50;5.63;;;;;;;;;;5071508;28;20020;-74
2023/05/12 05:42:10;;;;;;;8.57;5.10;;;;;;;;;;5071181;28;20103;-72
2023/05/12 05:44:35;;;;;;;11.45;5.75;;;;;;;;;;5071357;28;20502;-72
2023/05/12 05:47:01;;;;;;;9.75;4.90;;;;;;;;;;5071508;28;20052;-72
2023/05/12 05:49:28;;;;;;;14.60;5.90;;;;;;;;;;5071150;28;20474;-74
2023/05/12 05:51:54;;;;;;;10.52;5.60;;;;;;;;;;5070865;28;20047;-73
2023/05/12 05:54:20;;;;;;;8.32;5.55;;;;;;;;;;5071575;28;20092;-73
2023/05/12 05:56:45;;;;;;;10.68;5.60;;;;;;;;;;5071540;28;20356;-74
2023/05/12 05:59:13;;;;;;;8.07;5.65;;;;;;;;;;5071186;28;20032;-73
2023/05/12 06:01:39;;;;;;;8.90;5.00;;;;;;;;;;5071957;28;20020;-72
2023/05/12 06:04:05;;;;;;;9.10;5.57;;;;;;;;;;5071853;28;20028;-73
2023/05/12 06:06:31;;;;;;;13.52;5.93;;;;;;;;;;5071651;28;20494;-76
2023/05/12 06:08:57;;;;;;;12.52;5.40;;;;;;;;;;5076416;28;20039;-73
2023/05/12 06:11:23;;;;;;;8.68;5.18;;;;;;;;;;5076254;28;20028;-73
2023/05/12 06:13:49;;;;;;;12.75;5.68;;;;;;;;;;5080257;28;20052;-72
2023/05/12 06:16:15;;;;;;;8.75;5.57;;;;;;;;;;5080637;28;20073;-72
2023/05/12 06:18:41;;;;;;;11.20;5.13;;;;;;;;;;5076953;28;20378;-73
2023/05/12 06:21:07;;;;;;;12.38;5.70;;;;;;;;;;5077706;28;20110;-72
2023/05/12 06:23:33;;;;;;;11.82;5.22;;;;;;;;;;5078047;28;20111;-71
2023/05/12 06:25:59;;;;;;;10.23;5.75;;;;;;;;;;5077876;28;20028;-73
2023/05/12 06:28:25;;;;;;;13.93;5.78;;;;;;;;;;5077493;28;20434;-72
2023/05/12 06:30:51;;;;;;;11.73;5.82;;;;;;;;;;5076530;28;20032;-71
2023/05/12 06:33:17;;;;;;;12.23;5.07;;;;;;;;;;5075614;28;20020;-71
2023/05/12 06:35:43;;;;;;;10.75;5.65;;;;;;;;;;5075547;28;20024;-72
2023/05/12 06:38:09;;;;;;;13.70;5.70;;;;;;;;;;5075548;28;20017;-71
2023/05/12 06:40:35;;;;;;;14.18;5.85;;;;;;;;;;5075941;28;20343;-74
2023/05/12 06:43:01;;;;;;;10.80;5.50;;;;;;;;;;5075745;28;20024;-73
2023/05/12 06:45:27;;;;;;;10.32;5.68;;;;;;;;;;5075941;28;20028;-71
2023/05/12 06:47:53;;;;;;;7.13;4.93;;;;;;;;;;5074593;28;20028;-73
2023/05/12 06:50:19;;;;;;;9.90;4.53;;;;;;;;;;5075193;28;20031;-73
2023/05/12 06:52:45;;;;;;;16.80;5.63;;;;;;;;;;5053714;28;20040;-72
2023/05/12 06:55:11;;;;;;;11.30;5.25;;;;;;;;;;5053846;28;20025;-71
2023/05/12 06:57:37;;;;;;;14.52;5.45;;;;;;;;;;5053478;28;20074;-72
2023/05/12 07:00:04;;;;;;;9.43;5.05;;;;;;;;;;5053459;28;20013;-71
2023/05/12 07:02:30;;;;;;;9.02;4.63;;;;;;;;;;5053167;28;20060;-72
2023/05/12 07:04:56;;;;;;;9.70;5.25;;;;;;;;;;5053644;28;20021;-73
2023/05/12 07:07:22;;;;;;;15.40;5.10;;;;;;;;;;5053469;28;20029;-71
2023/05/12 07:09:49;;;;;;;8.32;4.55;;;;;;;;;;5053699;28;20033;-73
2023/05/12 07:12:15;;;;;;;13.15;4.97;;;;;;;;;;5053809;28;20024;-72
2023/05/12 07:14:41;;;;;;;8.02;4.78;;;;;;;;;;5053931;28;20025;-72
2023/05/12 07:17:07;;;;;;;10.02;5.10;;;;;;;;;;5055221;28;20059;-71
2023/05/12 07:19:34;;;;;;;9.93;5.38;;;;;;;;;;5054563;28;20383;-73
2023/05/12 07:22:00;;;;;;;9.25;4.68;;;;;;;;;;5053027;28;20387;-74
2023/05/12 07:24:26;;;;;;;9.48;5.07;;;;;;;;;;5053198;28;20029;-73
2023/05/12 07:26:52;;;;;;;11.45;5.32;;;;;;;;;;5054513;28;20052;-73
2023/05/12 07:29:18;;;;;;;12.95;5.75;;;;;;;;;;5053435;28;20682;-72
2023/05/12 07:31:44;;;;;;;13.88;5.05;;;;;;;;;;5053210;28;20060;-71
2023/05/12 07:34:11;;;;;;;16.10;5.60;;;;;;;;;;5053760;28;20043;-71
2023/05/12 07:36:37;;;;;;;10.52;4.97;;;;;;;;;;5053100;28;20024;-72
2023/05/12 07:39:03;;;;;;;19.20;5.43;;;;;;;;;;5052929;28;20021;-71
2023/05/12 07:41:29;;;;;;;10.52;5.25;;;;;;;;;;5054272;28;20025;-71
2023/05/12 07:43:55;;;;;;;15.10;5.25;;;;;;;;;;5054138;28;20382;-71
2023/05/12 07:46:21;;;;;;;9.77;4.90;;;;;;;;;;5054607;28;20095;-73
2023/05/12 07:48:46;;;;;;;16.38;4.78;;;;;;;;;;5053146;28;20441;-73
2023/05/12 07:51:12;;;;;;;15.82;5.40;;;;;;;;;;5053438;28;20025;-70
2023/05/12 07:53:38;;;;;;;9.77;4.93;;;;;;;;;;5052954;28;20039;-72
2023/05/12 07:56:06;;;;;;;10.55;5.20;;;;;;;;;;5053241;28;20021;-72
2023/05/12 07:58:32;;;;;;;9.50;4.55;;;;;;;;;;5054056;28;20029;-72
2023/05/12 08:00:59;;;;;;;8.30;4.55;;;;;;;;;;5054661;28;20048;-72
2023/05/12 08:03:25;;;;;;;12.43;5.13;;;;;;;;;;5053808;28;20025;-72
2023/05/12 08:05:52;;;;;;;10.73;5.35;;;;;;;;;;5053931;28;20075;-74
2023/05/12 08:08:18;;;;;;;8.23;4.57;;;;;;;;;;5053771;28;20033;-74
2023/05/12 08:10:44;;;;;;;7.47;5.05;;;;;;;;;;5053726;28;20103;-73
2023/05/12 08:13:10;;;;;;;8.95;4.78;;;;;;;;;;5053012;28;20032;-73
2023/05/12 08:15:36;;;;;;;11.65;5.70;;;;;;;;;;5053373;28;20017;-73
2023/05/12 08:18:02;;;;;;;14.30;6.65;;;;;;;;;;5053248;28;20103;-72
2023/05/12 08:20:28;;;;;;;16.77;5.63;;;;;;;;;;5053296;28;20621;-73
2023/05/12 08:22:54;;;;;;;11.32;5.15;;;;;;;;;;5053262;28;20123;-73
2023/05/12 08:25:20;;;;;;;12.35;4.88;;;;;;;;;;5053128;28;20017;-72
2023/05/12 08:27:46;;;;;;;16.30;5.03;;;;;;;;;;5053056;28;20078;-73
2023/05/12 08:30:12;;;;;;;8.63;4.18;;;;;;;;;;5052969;28;20033;-72
2023/05/12 08:32:39;;;;;;;12.90;4.72;;;;;;;;;;5052578;28;20029;-72
2023/05/12 08:35:05;;;;;;;14.02;4.72;;;;;;;;;;5052489;28;20508;-73
2023/05/12 08:37:31;;;;;;;9.63;5.45;;;;;;;;;;5052317;28;20131;-73
2023/05/12 08:39:57;;;;;;;19.63;4.70;;;;;;;;;;5052311;28;20036;-72
2023/05/12 08:42:41;;;;;;;20.35;5.40;;;;;;;;;;5052274;28;20033;-73
2023/05/12 08:45:08;;;;;;;13.40;4.88;;;;;;;;;;5052729;28;20029;-74
2023/05/12 08:47:34;;;;;;;18.70;5.72;;;;;;;;;;5054266;28;20036;-73
2023/05/12 08:50:02;;;;;;;17.27;4.95;;;;;;;;;;5054107;28;20036;-73
2023/05/12 08:52:34;;;;;;;15.30;6.25;;;;;;;;;;5052657;28;20029;-72
2023/05/12 08:55:01;;;;;;;16.48;5.18;;;;;;;;;;5051112;28;20025;-72
2023/05/12 08:57:27;;;;;;;10.63;4.72;;;;;;;;;;5052983;28;20021;-72
2023/05/12 08:59:54;;;;;;;9.88;4.57;;;;;;;;;;5065630;28;20056;-73
2023/05/12 09:02:22;;;;;;;11.20;4.55;;;;;;;;;;5072716;28;20028;-73
2023/05/12 09:04:48;;;;;;;13.65;4.25;;;;;;;;;;5072722;28;20028;-73
2023/05/12 09:07:15;;;;;;;15.40;4.32;;;;;;;;;;5072855;28;20058;-72
2023/05/12 09:09:44;;;;;;;10.95;4.57;;;;;;;;;;5072470;28;20079;-73
2023/05/12 09:12:12;;;;;;;13.32;4.30;;;;;;;;;;5072564;28;20493;-74
2023/05/12 09:14:39;;;;;;;16.48;5.22;;;;;;;;;;5073153;28;20029;-71
2023/05/12 09:17:06;;;;;;;14.48;4.82;;;;;;;;;;5072003;28;20025;-72
2023/05/12 09:19:33;;;;;;;7.05;4.00;;;;;;;;;;5071510;28;20025;-72
2023/05/12 09:22:00;;;;;;;11.60;3.90;;;;;;;;;;5072053;28;20608;-72
2023/05/12 09:24:39;;;;;;;10.57;4.35;;;;;;;;;;5072072;28;20029;-72
2023/05/12 09:27:05;;;;;;;11.60;4.05;;;;;;;;;;5072021;28;20050;-72
2023/05/12 09:29:32;;;;;;;8.13;3.70;;;;;;;;;;5071797;28;20367;-71
2023/05/12 09:32:00;;;;;;;7.38;4.07;;;;;;;;;;5053401;28;20048;-72
2023/05/12 09:34:39;;;;;;;20.27;4.60;;;;;;;;;;5072182;28;20099;-72
2023/05/12 09:37:06;;;;;;;8.85;4.00;;;;;;;;;;5070552;28;20504;-72
2023/05/12 09:39:33;;;;;;;14.82;4.13;;;;;;;;;;5072059;28;20413;-72
2023/05/12 09:41:59;;;;;;;13.95;4.07;;;;;;;;;;5071626;28;20034;-76
2023/05/12 09:44:27;;;;;;;15.43;4.03;;;;;;;;;;5072985;28;20051;-76
2023/05/12 09:46:54;;;;;;;10.13;3.72;;;;;;;;;;5073768;28;20029;-76
2023/05/12 09:49:20;;;;;;;7.65;3.80;;;;;;;;;;5082721;28;20016;-73
2023/05/12 09:51:46;;;;;;;12.77;4.03;;;;;;;;;;5086279;28;20070;-73
2023/05/12 09:54:12;;;;;;;8.65;3.40;;;;;;;;;;5078623;28;20052;-72
2023/05/12 09:56:40;;;;;;;12.38;4.43;;;;;;;;;;5073649;28;20385;-72
2023/05/12 09:59:06;;;;;;;14.25;4.35;;;;;;;;;;5073316;28;20025;-72
2023/05/12 10:01:32;;;;;;;8.55;4.43;;;;;;;;;;5071560;28;20020;-73
2023/05/12 10:03:59;;;;;;;11.18;3.97;;;;;;;;;;5071668;28;20017;-73
2023/05/12 10:06:29;;;;;;;10.50;3.80;;;;;;;;;;5072885;28;20029;-71
2023/05/12 10:09:18;;;;;;;10.50;3.95;;;;;;;;;;5071456;28;20032;-72
2023/05/12 10:11:44;;;;;;;9.02;3.35;;;;;;;;;;5065753;28;20125;-72
2023/05/12 10:14:12;;;;;;;22.70;4.30;;;;;;;;;;5071449;28;20035;-72
2023/05/12 10:16:38;;;;;;;11.38;4.30;;;;;;;;;;5072095;28;20027;-72
2023/05/12 10:19:05;;;;;;;5.72;3.65;;;;;;;;;;5071944;28;20112;-72
2023/05/12 10:21:31;;;;;;;8.77;4.05;;;;;;;;;;5071984;28;20474;-75
2023/05/12 10:23:58;;;;;;;8.38;3.70;;;;;;;;;;5072017;28;20060;-72
2023/05/12 10:26:24;;;;;;;11.32;3.92;;;;;;;;;;5071348;28;20029;-71
2023/05/12 10:28:51;;;;;;;12.27;3.75;;;;;;;;;;5071476;28;20552;-73
2023/05/12 10:31:17;;;;;;;10.20;4.35;;;;;;;;;;5071947;28;20460;-72
2023/05/12 10:33:43;;;;;;;7.20;3.53;;;;;;;;;;5071429;28;20025;-72
2023/05/12 10:36:16;;;;;;;11.18;4.20;;;;;;;;;;5047836;28;20063;-72
2023/05/12 10:38:42;;;;;;;8.90;3.33;;;;;;;;;;5050079;28;20049;-71
2023/05/12 10:41:09;;;;;;;7.25;4.28;;;;;;;;;;5047201;28;20095;-75
2023/05/12 10:43:44;;;;;;;17.33;4.20;;;;;;;;;;5048575;28;20368;-71
2023/05/12 10:46:15;;;;;;;10.90;3.75;;;;;;;;;;5044733;28;20044;-71
2023/05/12 10:49:01;;;;;;;15.68;4.20;;;;;;;;;;5043176;28;20367;-71
2023/05/12 10:51:30;;;;;;;14.85;4.13;;;;;;;;;;5048365;28;20052;-71
2023/05/12 10:54:03;;;;;;;9.50;3.70;;;;;;;;;;5042619;28;20029;-71
2023/05/12 10:56:30;;;;;;;11.32;4.38;;;;;;;;;;5052289;28;20016;-71
2023/05/12 10:59:18;;;;;;;9.45;3.58;;;;;;;;;;5035535;28;20498;-71
2023/05/12 11:02:02;;;;;;;11.00;4.22;;;;;;;;;;5048293;28;20036;-71
2023/05/12 11:04:41;;;;;;;14.80;4.35;;;;;;;;;;5050827;28;20017;-71
2023/05/12 11:07:10;;;;;;;10.07;3.83;;;;;;;;;;5053602;28;20029;-71
2023/05/12 11:09:40;;;;;;;10.77;3.95;;;;;;;;;;5039278;28;20025;-73
2023/05/12 11:12:06;;;;;;;9.07;3.80;;;;;;;;;;5050902;28;20025;-76
2023/05/12 11:14:33;;;;;;;5.65;3.78;;;;;;;;;;5050492;28;20018;-72
2023/05/12 11:16:59;;;;;;;11.43;4.20;;;;;;;;;;5035131;28;20094;-72
2023/05/12 11:19:26;;;;;;;9.68;3.90;;;;;;;;;;5050807;28;20021;-72
2023/05/12 11:21:54;;;;;;;8.40;3.22;;;;;;;;;;5057528;28;20080;-72
2023/05/12 11:24:20;;;;;;;11.48;4.30;;;;;;;;;;5057933;28;20020;-72
2023/05/12 11:26:50;;;;;;;9.05;3.70;;;;;;;;;;5057525;28;20029;-72
2023/05/12 11:29:17;;;;;;;12.32;4.30;;;;;;;;;;5057349;28;20101;-71
2023/05/12 11:31:46;;;;;;;14.75;3.60;;;;;;;;;;5058785;28;20016;-73
2023/05/12 11:34:12;;;;;;;7.22;3.85;;;;;;;;;;5058096;28;20017;-73
2023/05/12 11:36:39;;;;;;;5.38;3.50;;;;;;;;;;5075152;28;20378;-72
2023/05/12 11:39:06;;;;;;;7.47;3.88;;;;;;;;;;5069874;28;20425;-73
2023/05/12 11:41:32;;;;;;;8.52;3.40;;;;;;;;;;5054484;28;20495;-73
2023/05/12 11:43:58;;;;;;;6.50;3.42;;;;;;;;;;5054634;28;20025;-72
2023/05/12 11:46:27;;;;;;;8.98;4.15;;;;;;;;;;5052683;28;20032;-71
2023/05/12 11:48:54;;;;;;;22.15;10.60;;;;;;;;;;5053213;28;20540;-71
2023/05/12 11:51:21;;;;;;;12.07;2.97;;;;;;;;;;5053712;28;20017;-72
2023/05/12 11:53:47;;;;;;;5.93;3.15;;;;;;;;;;5053319;28;20494;-71
2023/05/12 11:56:20;;;;;;;8.50;3.25;;;;;;;;;;5054183;28;20036;-71
2023/05/12 11:58:56;;;;;;;10.13;3.30;;;;;;;;;;5054025;28;20024;-73
2023/05/12 12:01:22;;;;;;;8.68;3.53;;;;;;;;;;5056047;28;20027;-73
2023/05/12 12:03:50;;;;;;;5.20;2.88;;;;;;;;;;5056160;28;20087;-72
2023/05/12 12:06:16;;;;;;;13.60;3.22;;;;;;;;;;5055609;28;20083;-72
2023/05/12 12:08:56;;;;;;;8.23;3.10;;;;;;;;;;5055580;28;20039;-73
2023/05/12 12:11:23;;;;;;;13.30;3.47;;;;;;;;;;5052028;28;20420;-71
2023/05/12 12:13:56;;;;;;;8.90;2.83;;;;;;;;;;5052932;28;20032;-75
2023/05/12 12:16:25;;;;;;;13.98;3.35;;;;;;;;;;5053214;28;20474;-75
2023/05/12 12:18:51;;;;;;;13.98;3.33;;;;;;;;;;5052986;28;20025;-77
2023/05/12 12:21:18;;;;;;;11.93;3.55;;;;;;;;;;5053677;28;20025;-75
2023/05/12 12:23:44;;;;;;;6.32;3.17;;;;;;;;;;5053064;28;20087;-76
2023/05/12 12:26:10;;;;;;;7.60;2.95;;;;;;;;;;5053481;28;20025;-75
2023/05/12 12:28:36;;;;;;;8.82;2.85;;;;;;;;;;5053572;28;20150;-76
2023/05/12 12:31:02;;;;;;;8.02;3.05;;;;;;;;;;5053502;28;20422;-76
2023/05/12 12:33:28;;;;;;;10.68;2.95;;;;;;;;;;5052723;28;20068;-77
2023/05/12 12:35:54;;;;;;;6.95;3.15;;;;;;;;;;5053589;28;20017;-75
2023/05/12 12:38:20;;;;;;;13.48;3.38;;;;;;;;;;5053228;28;20028;-75
2023/05/12 12:40:46;;;;;;;9.70;3.15;;;;;;;;;;5052782;28;20463;-76
2023/05/12 12:43:12;;;;;;;11.93;3.65;;;;;;;;;;5052616;28;20067;-76
2023/05/12 12:45:38;;;;;;;13.15;2.97;;;;;;;;;;5052630;28;20449;-75
2023/05/12 12:48:05;;;;;;;10.27;2.80;;;;;;;;;;5052435;28;20183;-75
2023/05/12 12:50:32;;;;;;;7.65;3.20;;;;;;;;;;5052458;28;20037;-76
2023/05/12 12:52:58;;;;;;;6.10;2.85;;;;;;;;;;5051983;28;20021;-72
2023/05/12 12:55:24;;;;;;;6.43;2.63;;;;;;;;;;5048824;28;20047;-72
2023/05/12 12:57:50;;;;;;;9.35;3.28;;;;;;;;;;5057393;28;20471;-73
2023/05/12 13:00:16;;;;;;;6.13;2.90;;;;;;;;;;5055369;28;20028;-72
2023/05/12 13:02:43;;;;;;;6.40;2.95;;;;;;;;;;5052371;28;20036;-72
2023/05/12 13:05:09;;;;;;;14.75;3.30;;;;;;;;;;5055163;28;20053;-71
2023/05/12 13:07:35;;;;;;;7.03;3.00;;;;;;;;;;5051607;28;20037;-72
2023/05/12 13:10:02;;;;;;;11.38;2.97;;;;;;;;;;5052059;28;20033;-72
2023/05/12 13:12:30;;;;;;;11.73;3.55;;;;;;;;;;5051045;28;20331;-72
2023/05/12 13:14:56;;;;;;;8.55;3.38;;;;;;;;;;5051562;28;20028;-74
2023/05/12 13:17:22;;;;;;;4.88;2.78;;;;;;;;;;5051668;28;20104;-73
2023/05/12 13:19:48;;;;;;;9.63;3.38;;;;;;;;;;5052356;28;20073;-75
2023/05/12 13:22:14;;;;;;;7.63;3.20;;;;;;;;;;5050809;28;20068;-73
2023/05/12 13:24:41;;;;;;;12.77;3.10;;;;;;;;;;5052391;28;20112;-72
2023/05/12 13:27:08;;;;;;;8.73;3.05;;;;;;;;;;5050938;28;20285;-73
2023/05/12 13:29:34;;;;;;;10.13;3.05;;;;;;;;;;5054988;28;20485;-73
2023/05/12 13:32:00;;;;;;;8.18;3.17;;;;;;;;;;5056479;28;20021;-74
2023/05/12 13:34:26;;;;;;;7.03;3.30;;;;;;;;;;5055784;28;20060;-75
2023/05/12 13:36:52;;;;;;;7.28;2.72;;;;;;;;;;5055280;28;20025;-72
2023/05/12 13:39:18;;;;;;;10.15;3.13;;;;;;;;;;5051314;28;20112;-73
2023/05/12 13:41:44;;;;;;;12.15;3.28;;;;;;;;;;5052073;28;20063;-71
2023/05/12 13:44:10;;;;;;;9.82;2.95;;;;;;;;;;5057056;28;20475;-72
2023/05/12 13:46:36;;;;;;;4.88;2.90;;;;;;;;;;5051400;28;20036;-73
2023/05/12 13:49:02;;;;;;;11.32;2.78;;;;;;;;;;5056418;28;20482;-74
2023/05/12 13:51:28;;;;;;;11.43;3.92;;;;;;;;;;5056186;28;20032;-73
2023/05/12 13:53:54;;;;;;;9.20;2.85;;;;;;;;;;5054272;28;20032;-72
2023/05/12 13:56:20;;;;;;;8.68;2.85;;;;;;;;;;5053622;28;20501;-72
2023/05/12 13:58:47;;;;;;;6.97;2.80;;;;;;;;;;5054755;28;20037;-72
2023/05/12 14:01:12;;;;;;;14.85;3.42;;;29.80;1.00;;;;;;5053628;28;20100;-72
2023/05/12 14:03:39;;;;;;;5.82;2.53;;;30.50;1.00;;;;;;5051400;28;20121;-73
2023/05/12 14:06:04;;;;;;;7.65;2.80;;;30.30;1.00;;;;;;5051870;28;20071;-72
2023/05/12 14:08:30;;;;;;;8.10;3.10;;;30.20;1.00;;;;;;5051483;28;20033;-73
2023/05/12 14:10:56;;;;;;;9.93;2.97;;;30.60;1.00;;;;;;5051460;28;20025;-71
2023/05/12 14:13:23;;;;;;;10.57;3.72;;;30.90;1.00;;;;;;5051324;28;20487;-73
2023/05/12 14:15:48;;;;;;;5.13;2.63;;;30.90;1.00;;;;;;5051888;28;20380;-72
2023/05/12 14:18:14;;;;;;;10.77;3.22;;;30.80;1.00;;;;;;5052111;28;20023;-71
2023/05/12 14:20:40;;;;;;;6.25;2.67;;;30.70;1.00;;;;;;5052192;28;20018;-72